Date,TemperatureHighF,TemperatureAvgF,TemperatureLowF,DewpointHighF,DewpointAvgF,DewpointLowF,HumidityHigh,HumidityAvg,HumidityLow,PressureMaxIn,PressureMinIn,WindSpeedMaxMPH,WindSpeedAvgMPH,GustSpeedMaxMPH,PrecipitationSumIn
2014-1-1,66.7,51.3,37.2,53.8,41.8,27.5,95,71,57,30.25,30.00,34,12,34,0.00
2014-1-2,50.9,36.9,24.6,37.5,23.2,17.5,80,60,32,30.47,30.16,35,13,35,0.00
2014-1-3,46.2,29.4,18.9,38.1,21.4,14.1,88,75,34,30.46,30.11,32,6,32,0.00
2014-1-4,68.5,54.4,41.7,53.3,46.6,38.4,96,77,50,30.11,29.82,36,14,36,0.00
2014-1-5,57.2,40.6,28.9,54.6,25.9,12.7,92,57,34,30.46,29.81,37,19,37,0.00
2014-1-6,30.7,23.8,16.5,13.2,2.9,-7.1,63,42,21,30.75,30.46,28,10,30,0.00
2014-1-7,45.3,32.8,15.1,25.9,7.3,-3.7,74,38,18,30.60,30.32,27,10,27,0.00
2014-1-8,52.5,44.5,36.5,52.0,43.4,25.9,99,96,57,30.32,30.12,22,6,22,0.05
2014-1-9,69.8,57.8,51.4,60.4,55.2,51.2,99,92,66,30.19,30.01,24,6,24,0.00
2014-1-10,72.1,63.4,54.1,60.7,57.5,52.3,97,82,60,30.01,29.79,31,12,31,0.00
2014-1-11,73.4,55.1,40.1,54.1,32.1,13.0,97,51,11,30.19,29.89,17,5,17,0.00
2014-1-12,64.8,57.6,48.2,59.3,44.6,29.9,93,64,42,30.15,29.92,40,14,40,0.04
2014-1-13,65.7,54.4,34.5,60.3,32.1,12.4,99,51,14,30.18,29.89,38,12,38,0.00
2014-1-14,72.7,53.0,35.4,30.9,20.7,12.2,63,32,10,30.38,30.03,34,11,34,0.00
2014-1-15,63.1,46.7,36.3,30.3,20.5,12.4,74,38,18,30.47,30.17,23,7,27,0.00
2014-1-16,69.6,52.7,39.6,34.1,24.7,16.5,74,36,18,30.25,30.07,27,7,27,0.00
2014-1-17,59.2,45.7,33.3,34.9,21.4,10.0,75,43,17,30.39,30.25,21,5,21,0.00
2014-1-18,63.9,51.7,31.6,41.7,30.4,20.8,73,45,38,30.27,30.11,21,12,21,0.00
2014-1-19,71.1,55.3,36.0,41.7,25.4,13.1,74,40,11,30.36,30.13,8,4,8,0.00
2014-1-20,77.5,56.3,46.6,37.5,29.7,18.8,53,40,18,30.22,29.88,34,7,34,0.00
2014-1-21,56.8,46.8,30.0,27.8,21.2,12.8,79,39,19,30.45,30.22,34,12,34,0.00
2014-1-22,64.6,49.7,32.4,26.6,21.6,20.2,68,37,18,30.24,30.01,16,8,16,0.00
2014-1-23,64.6,41.4,21.7,40.1,22.8,15.7,86,54,18,30.71,30.08,37,20,37,0.00
2014-1-24,41.0,28.3,21.4,22.1,12.3,0.3,83,52,30,30.72,30.35,27,8,27,0.00
2014-1-25,71.6,47.8,29.1,40.1,24.7,13.0,74,47,11,30.36,30.03,14,4,14,0.00
2014-1-26,78.3,60.2,42.6,45.9,34.8,19.4,71,41,19,30.03,29.71,30,9,30,0.00
2014-1-27,52.3,40.9,29.5,32.2,14.4,-3.7,71,37,18,30.29,29.85,40,16,40,0.00
2014-1-28,37.2,28.4,22.8,16.8,5.5,-2.4,67,40,20,30.47,30.26,30,14,30,0.00
2014-1-29,46.0,32.0,19.8,17.9,9.6,0.9,74,43,19,30.48,30.24,30,7,30,0.00
2014-1-30,60.8,45.9,29.7,51.7,36.9,13.4,97,71,44,30.24,29.91,49,17,49,0.02
2014-1-31,75.9,62.0,52.5,60.1,54.3,50.7,98,79,43,29.96,29.83,39,18,39,0.00
2014-2-1,73.8,64.5,48.9,61.8,57.5,40.2,90,78,62,29.98,29.79,36,13,36,0.00
2014-2-2,48.9,36.3,30.2,41.0,32.3,26.9,95,85,74,30.27,29.95,32,17,32,0.00
2014-2-3,40.8,34.3,29.1,37.7,32.9,27.5,99,95,83,30.26,29.97,71,9,71,0.00
2014-2-4,63.5,45.0,37.6,45.6,40.8,37.3,99,88,46,30.14,29.88,17,4,20,0.15
2014-2-5,42.8,33.4,25.7,42.0,23.6,12.7,99,68,47,30.49,30.14,30,16,30,0.00
2014-2-6,25.7,23.4,19.2,13.7,11.8,7.7,66,61,56,30.53,30.38,25,13,25,0.00
2014-2-7,33.8,28.1,23.7,28.1,21.7,13.4,89,77,64,30.38,30.23,13,5,14,0.00
2014-2-8,66.6,47.0,32.5,42.9,37.4,28.0,99,73,41,30.25,30.02,24,9,24,0.00
2014-2-9,51.1,51.1,51.1,42.4,42.4,42.4,72,72,72,30.09,30.09,12,12,14,0.00
2014-2-10,51.1,51.1,51.1,42.4,42.4,42.4,72,72,72,30.09,30.09,12,12,14,0.00
2014-2-11,51.1,51.1,51.1,42.4,42.4,42.4,72,72,72,30.09,30.09,12,12,14,0.00
2014-2-12,51.1,51.1,51.1,42.4,42.4,42.4,72,72,72,30.09,30.09,12,12,14,0.00
2014-2-13,51.1,51.1,51.1,42.4,42.4,42.4,72,72,72,30.09,30.09,12,12,14,0.00
2014-2-19,68.0,65.2,0.0,62.5,61.6,42.4,89,83,81,29.95,29.91,35,21,35,0.04
2014-2-20,79.0,65.4,47.5,64.1,45.1,18.5,92,57,11,30.29,29.89,33,16,33,0.00
2014-2-21,68.5,51.1,29.5,32.7,24.3,16.1,84,41,15,30.37,30.18,26,8,26,0.00
2014-2-22,73.4,58.8,44.6,57.6,46.1,21.7,81,64,29,30.22,30.03,30,11,30,0.00
2014-2-23,79.7,66.0,55.6,62.3,53.5,40.5,99,68,38,30.25,30.06,22,8,22,0.00
2014-2-24,75.4,59.0,49.1,59.0,51.1,43.5,96,76,54,30.30,30.16,17,6,17,0.00
2014-2-25,63.1,55.1,45.3,62.3,54.7,5.2,99,98,95,30.25,30.14,22,8,22,0.02
2014-2-26,45.7,36.1,27.0,44.7,27.3,16.6,99,72,42,30.44,30.24,36,15,36,0.07
2014-2-27,56.5,40.4,22.6,34.7,25.6,14.3,92,59,29,30.35,30.06,24,6,24,0.00
2014-2-28,85.5,59.7,41.4,51.9,40.8,26.5,86,59,13,30.06,29.92,23,11,23,0.04
2014-3-1,77.0,65.4,48.7,64.9,57.2,45.3,89,75,64,30.19,30.04,28,11,28,0.00
2014-3-2,69.6,41.6,22.1,66.1,39.0,17.0,99,90,80,30.47,30.07,31,16,31,0.06
2014-3-3,41.4,28.2,18.0,20.8,14.4,7.4,81,57,40,30.56,30.40,34,17,37,0.01
2014-3-4,54.5,36.9,27.5,38.3,30.6,19.3,97,79,51,30.42,30.18,15,5,16,0.15
2014-3-5,56.1,43.3,33.3,44.3,39.3,32.8,99,87,62,30.34,30.11,17,5,17,0.00
2014-3-6,64.0,46.6,36.0,43.0,38.1,33.0,98,75,36,30.43,30.23,25,7,25,0.00
2014-3-7,66.0,52.0,36.9,50.4,42.5,33.9,95,72,43,30.26,30.03,30,11,30,0.00
2014-3-8,59.0,51.2,41.2,57.2,47.3,36.2,99,87,62,30.46,30.06,28,11,28,0.41
2014-3-9,61.3,47.2,35.6,46.5,38.3,29.5,89,73,50,30.51,30.35,23,9,23,0.00
2014-3-10,73.6,56.9,41.9,56.9,50.7,41.3,99,81,55,30.41,30.10,22,6,22,0.02
2014-3-11,87.4,66.7,54.7,56.4,51.8,31.0,99,67,14,30.10,29.77,24,11,24,0.01
2014-3-12,71.6,53.4,41.4,50.9,27.6,13.4,63,40,17,30.47,29.92,43,19,44,0.09
2014-3-13,67.1,50.7,29.8,37.8,23.9,15.7,82,41,16,30.52,30.28,23,7,23,0.00
2014-3-14,72.9,59.9,49.5,58.9,51.4,38.6,94,75,50,30.28,30.12,28,12,28,0.00
2014-3-15,72.7,64.6,60.8,64.0,60.8,57.0,98,88,68,30.17,29.87,28,9,28,0.01
2014-3-16,63.9,53.8,45.9,56.5,42.9,32.2,96,68,47,30.25,29.90,39,20,39,0.06
2014-3-17,68.2,51.3,37.6,32.2,24.2,15.6,62,39,14,30.24,29.93,36,10,36,0.00
2014-3-18,82.0,64.7,50.0,57.5,38.3,28.4,75,41,18,30.05,29.84,36,18,36,0.00
2014-3-19,66.4,57.0,45.9,57.1,32.5,22.1,82,42,21,30.39,30.05,35,12,35,0.00
2014-3-20,77.9,56.9,35.4,41.2,33.8,23.7,87,49,17,30.42,30.20,14,4,14,0.00
2014-3-21,79.9,67.2,56.7,59.3,53.6,40.9,85,63,44,30.21,30.00,36,15,36,0.00
2014-3-22,73.8,65.6,58.1,66.0,61.1,52.0,99,86,69,30.23,30.07,25,8,25,0.00
2014-3-23,58.1,49.7,42.1,51.6,41.5,35.2,89,74,57,30.44,30.22,34,16,34,0.00
2014-3-24,67.6,54.1,45.0,48.8,43.7,39.1,90,69,46,30.42,30.19,15,4,15,0.00
2014-3-25,64.9,50.6,35.4,45.9,35.8,24.3,99,63,23,30.52,30.32,25,7,25,0.00
2014-3-26,63.1,57.0,48.2,56.4,46.8,29.6,92,70,42,30.38,30.11,42,17,42,0.02
2014-3-27,83.5,68.2,58.3,67.8,61.3,56.4,99,81,44,30.11,29.91,34,15,34,0.07
2014-3-28,69.3,67.7,66.7,67.6,65.7,63.8,99,93,85,30.03,29.94,20,9,24,0.00
2014-3-29,74.3,59.3,45.1,48.9,35.2,14.8,77,47,11,30.47,30.22,27,6,27,0.00
2014-3-30,77.9,60.3,40.3,52.0,41.5,33.5,91,55,24,30.40,30.17,39,12,39,0.00
2014-3-31,82.6,68.6,58.8,61.6,56.8,51.8,91,68,42,30.19,30.02,33,16,33,0.00
2014-4-1,84.9,72.1,63.9,67.6,63.6,60.6,99,77,49,30.17,30.01,34,14,34,0.00
2014-4-2,80.4,73.7,69.4,69.5,66.8,63.5,93,79,63,30.06,29.90,39,17,39,0.00
2014-4-3,83.5,74.4,70.5,69.1,66.7,39.3,90,78,23,30.02,29.86,47,16,47,0.13
2014-4-4,120.4,61.1,49.5,55.6,29.2,14.9,56,32,10,30.33,30.01,105,17,105,0.00
2014-4-5,62.1,56.0,50.4,45.1,38.1,30.8,65,51,36,30.28,30.06,21,7,21,0.00
2014-4-6,58.5,51.8,47.8,50.2,47.8,44.5,99,87,61,30.08,29.94,22,10,22,0.56
2014-4-7,68.7,54.6,46.2,51.2,49.1,44.5,99,84,48,30.23,29.98,44,6,44,0.30
2014-4-8,73.6,59.1,46.0,49.7,36.2,20.5,95,52,14,30.39,30.22,42,13,42,0.00
2014-4-9,84.2,63.9,41.9,52.5,38.8,28.7,93,47,15,30.43,30.23,29,10,29,0.00
2014-4-10,84.6,70.3,57.4,57.6,53.0,45.8,92,59,28,30.29,30.08,42,19,42,0.00
2014-4-11,85.1,70.9,60.8,60.9,58.6,56.1,90,68,42,30.20,30.08,33,16,33,0.00
2014-4-12,83.7,71.6,64.2,64.1,61.4,58.0,88,72,45,30.16,29.99,40,19,40,0.00
2014-4-13,77.4,71.0,66.9,69.5,65.6,62.3,91,83,73,30.03,29.84,35,13,35,0.01
2014-4-14,71.6,55.8,43.3,69.1,44.5,31.1,97,68,43,30.26,29.86,42,19,42,0.47
2014-4-15,66.2,49.3,32.5,33.5,22.5,10.6,80,40,15,30.37,30.14,14,6,14,0.00
2014-4-16,61.5,53.5,37.2,39.7,35.9,29.2,84,52,43,30.14,29.93,26,12,26,0.00
2014-4-17,66.2,59.9,54.9,59.5,52.4,39.3,99,79,45,30.19,30.00,16,8,16,0.00
2014-4-18,75.7,63.2,55.0,60.2,55.9,50.6,99,80,45,30.24,30.11,17,4,17,0.02
2014-4-19,77.0,63.6,47.3,59.4,52.8,47.0,99,71,42,30.19,30.06,20,6,20,0.00
2014-4-20,71.6,65.4,60.8,64.1,60.0,56.0,98,83,71,30.17,30.05,22,8,22,0.00
2014-4-21,84.9,70.7,62.1,65.6,61.8,55.4,97,75,49,30.08,29.91,34,10,34,0.00
2014-4-22,84.2,71.3,57.9,65.0,57.7,52.8,97,66,38,30.08,29.93,27,7,27,0.00
2014-4-23,86.4,70.7,53.2,64.6,59.8,52.2,99,72,44,29.99,29.77,34,10,34,0.00
2014-4-24,91.4,73.0,56.5,66.4,52.9,24.5,92,60,10,29.97,29.80,29,10,34,0.00
2014-4-25,86.9,69.2,47.1,64.6,51.0,42.6,89,56,30,30.06,29.88,21,6,21,0.00
2014-4-26,81.3,72.2,63.5,70.0,65.6,61.3,95,81,59,29.92,29.68,30,13,30,0.00
2014-4-27,93.9,79.7,69.8,70.9,56.8,28.2,88,57,11,29.68,29.50,32,13,32,0.00
2014-4-28,90.0,75.0,57.4,57.7,31.1,16.8,69,26,10,29.77,29.61,31,8,31,0.00
2014-4-29,79.9,69.1,57.0,41.8,29.2,12.6,55,25,10,30.02,29.67,34,13,34,0.00
2014-4-30,71.6,60.5,46.6,37.9,31.7,26.0,66,35,20,30.21,30.01,29,11,30,0.00
2014-5-1,77.0,60.7,43.3,38.1,27.7,14.4,71,35,11,30.22,30.03,22,5,22,0.00
2014-5-2,81.1,65.1,46.2,37.0,29.9,19.1,67,32,11,30.11,29.97,23,6,23,0.00
2014-5-3,94.3,74.6,58.3,38.3,31.3,23.2,43,23,10,30.10,29.98,22,8,22,0.00
2014-5-4,89.4,76.4,65.1,41.0,33.7,25.4,33,22,12,30.12,29.97,34,16,34,0.00
2014-5-5,90.0,74.4,60.8,60.5,54.5,30.5,86,53,24,30.03,29.82,27,15,27,0.00
2014-5-6,84.9,71.5,61.5,65.9,62.0,56.1,93,73,50,29.89,29.75,31,16,31,0.00
2014-5-7,85.8,74.6,68.9,68.0,65.0,62.0,87,73,47,29.88,29.79,34,18,34,0.00
2014-5-8,83.1,73.8,67.1,73.4,69.7,64.4,98,87,67,29.88,29.77,34,13,34,0.20
2014-5-9,82.4,75.0,64.9,71.2,66.2,18.4,97,76,10,29.97,29.82,122,8,122,0.00
2014-5-10,88.5,73.9,58.1,66.7,61.8,56.6,99,69,40,29.96,29.79,25,9,26,0.00
2014-5-11,89.4,77.6,69.6,69.5,66.7,62.6,92,71,43,29.87,29.72,34,16,34,0.00
2014-5-12,82.6,73.3,59.7,75.4,69.9,59.5,99,89,68,30.00,29.77,30,14,30,0.97
2014-5-13,64.2,57.6,54.1,59.5,51.2,45.9,99,80,56,30.28,29.93,34,16,34,0.89
2014-5-14,71.8,59.0,47.7,51.4,42.3,26.6,99,63,20,30.31,30.20,31,12,32,0.18
2014-5-15,82.8,65.2,42.8,45.1,36.7,19.1,98,45,10,30.31,30.12,34,7,34,0.00
2014-5-16,86.9,73.0,61.0,45.6,39.3,31.6,53,32,16,30.16,29.98,34,16,34,0.00
2014-5-17,84.9,71.9,59.0,58.8,52.4,38.0,79,52,31,30.04,29.93,36,17,36,0.00
2014-5-18,83.1,71.7,62.4,62.4,58.7,53.8,93,66,42,30.11,30.00,29,15,29,0.00
2014-5-19,84.9,73.2,64.2,63.0,60.6,56.7,91,67,43,30.07,29.97,36,18,36,0.00
2014-5-20,86.4,75.1,66.6,66.2,61.6,57.8,87,65,43,30.09,30.00,33,16,33,0.00
2014-5-21,87.1,76.1,69.1,66.2,63.3,58.7,88,67,42,30.11,29.99,32,15,32,0.00
2014-5-22,86.5,75.3,68.2,69.4,65.7,60.9,93,73,50,30.12,30.00,23,12,23,0.00
2014-5-23,83.5,73.9,68.9,67.7,66.0,62.8,93,77,54,30.10,30.00,26,11,26,0.01
2014-5-24,82.4,72.9,68.2,73.6,68.4,66.0,97,86,66,30.08,29.94,33,9,33,0.56
2014-5-25,83.3,71.5,63.7,71.1,67.0,62.2,99,87,59,30.12,29.94,24,6,24,0.25
2014-5-26,72.9,66.9,62.6,67.9,64.0,60.0,99,91,75,30.12,29.92,30,7,30,1.55
2014-5-27,75.6,66.8,61.5,69.4,64.7,60.6,99,93,74,30.06,29.88,27,6,39,1.59
2014-5-28,80.8,71.6,64.2,67.9,64.8,11.0,99,81,11,29.99,29.89,22,7,22,0.01
2014-5-29,86.7,73.2,60.6,67.3,62.9,58.5,99,74,44,29.96,29.86,17,4,20,0.00
2014-5-30,90.5,76.9,64.4,69.4,64.9,57.9,97,70,38,29.92,29.84,30,6,30,0.00
2014-5-31,88.9,77.5,64.2,70.4,66.2,61.7,99,71,44,29.96,29.88,21,5,21,0.00
2014-6-1,89.4,76.5,64.6,74.1,67.2,64.3,99,76,47,30.00,29.89,18,4,21,0.00
2014-6-2,88.7,79.1,71.8,71.6,68.1,63.4,90,71,44,30.02,29.91,26,12,26,0.00
2014-6-3,88.9,78.8,71.8,72.4,69.7,65.3,94,75,50,30.06,29.95,17,6,19,0.00
2014-6-4,90.0,79.3,72.0,72.5,69.3,65.7,93,73,50,29.96,29.85,26,11,26,0.00
2014-6-5,90.3,79.4,72.1,71.4,69.9,67.2,90,74,50,29.92,29.83,27,14,28,0.00
2014-6-6,90.0,79.6,71.1,71.1,69.0,64.1,94,72,50,30.00,29.88,25,12,25,0.00
2014-6-7,90.3,80.4,71.4,71.7,68.7,64.8,94,70,46,30.01,29.88,28,13,28,0.00
2014-6-8,86.4,77.5,68.7,74.5,70.0,66.5,98,79,57,30.04,29.83,26,10,28,0.59
2014-6-9,83.1,74.7,63.0,72.0,69.2,61.9,99,83,68,29.94,29.80,35,9,35,0.44
2014-6-10,88.3,74.1,62.4,66.6,59.7,54.4,93,64,37,29.96,29.86,24,8,24,0.00
2014-6-11,93.2,78.8,60.8,70.8,64.8,60.0,98,66,38,29.96,29.81,24,7,24,0.00
2014-6-12,90.3,80.5,64.8,74.7,70.9,63.3,96,73,53,30.07,29.73,34,12,34,2.22
2014-6-13,90.5,77.2,65.3,72.3,67.6,60.6,99,74,46,30.03,29.90,59,4,59,0.00
2014-6-14,85.1,77.7,72.7,72.7,70.4,65.5,94,79,59,30.01,29.86,26,11,26,0.00
2014-6-15,89.6,80.8,74.3,71.9,69.4,64.7,90,70,47,29.99,29.88,35,16,35,0.00
2014-6-16,90.0,80.9,73.4,73.4,70.3,64.2,93,72,46,30.06,29.95,29,14,29,0.00
2014-6-17,90.3,81.6,74.7,72.5,69.2,64.5,91,68,46,30.06,29.94,32,16,32,0.00
2014-6-18,89.8,80.8,75.7,74.6,69.7,62.6,92,71,43,30.05,29.93,30,15,30,0.00
2014-6-19,89.1,81.7,74.1,73.0,68.5,61.8,92,66,44,30.08,30.00,25,12,25,0.00
2014-6-20,90.3,79.4,73.0,72.4,68.6,62.4,93,71,44,30.14,30.02,21,7,21,0.00
2014-6-21,89.1,79.4,72.7,72.5,69.6,62.6,93,74,45,30.09,29.93,21,8,21,0.00
2014-6-22,86.2,79.1,73.8,72.9,69.9,65.2,92,75,51,29.99,29.86,26,11,26,0.02
2014-6-23,90.3,78.6,67.6,74.3,70.7,63.0,97,78,50,30.06,29.88,31,8,31,0.22
2014-6-24,93.2,79.2,72.7,73.4,70.4,65.8,95,76,44,30.09,29.97,27,7,27,0.00
2014-6-25,90.3,78.3,72.3,75.0,70.0,60.0,95,78,40,30.09,29.96,26,9,26,0.06
2014-6-26,88.2,77.2,69.3,73.9,69.2,65.8,98,78,51,30.06,29.90,27,10,27,0.00
2014-6-27,88.9,79.4,72.7,72.5,69.8,66.0,90,74,52,29.96,29.84,35,16,35,0.00
2014-6-28,90.0,81.5,76.3,73.4,71.2,67.6,89,72,51,30.00,29.89,34,18,36,0.01
2014-6-29,93.0,82.9,75.9,73.4,70.8,66.2,87,69,45,30.06,29.97,36,18,36,0.00
2014-6-30,93.4,82.5,75.2,73.4,68.3,60.4,87,65,36,30.04,29.92,34,18,34,0.00
2014-7-1,93.2,82.2,72.9,71.8,67.3,60.6,92,64,37,30.04,29.92,27,12,27,0.00
2014-7-2,97.3,82.7,71.4,71.7,65.9,49.5,96,62,24,30.10,30.02,19,7,19,0.00
2014-7-3,93.9,78.6,68.9,72.7,66.0,61.5,93,68,38,30.19,30.08,29,5,29,0.00
2014-7-4,92.5,79.3,69.8,70.8,65.3,54.9,89,65,30,30.24,30.14,21,6,21,0.00
2014-7-5,94.5,78.4,65.1,69.7,65.7,60.8,96,68,38,30.23,30.09,23,6,26,0.00
2014-7-6,96.3,81.0,71.1,71.9,67.3,61.7,98,67,38,30.13,29.98,21,8,21,0.00
2014-7-7,95.7,82.7,73.0,68.9,64.4,55.5,83,57,30,30.07,29.98,27,11,27,0.00
2014-7-8,96.8,83.5,72.7,71.8,66.1,58.2,91,59,33,30.09,30.01,26,11,26,0.00
2014-7-9,96.6,83.4,71.4,70.4,63.7,57.5,84,54,31,30.13,30.00,30,10,30,0.00
2014-7-10,93.4,81.5,70.2,70.8,65.6,58.9,90,61,35,30.13,30.00,24,10,24,0.00
2014-7-11,90.1,80.7,69.4,72.0,63.9,54.1,91,61,30,30.18,30.10,27,11,27,0.00
2014-7-12,88.9,88.9,88.9,56.9,56.9,56.9,34,34,34,30.10,30.10,17,17,19,0.00
2014-7-13,88.9,88.9,88.9,56.9,56.9,56.9,34,34,34,30.10,30.10,17,17,19,0.00
2014-7-14,88.9,88.9,88.9,56.9,56.9,56.9,34,34,34,30.10,30.10,17,17,19,0.00
2014-7-15,88.9,88.9,88.9,56.9,56.9,56.9,34,34,34,30.10,30.10,17,17,19,0.00
2014-7-23,81.1,74.4,62.2,70.6,65.4,56.9,95,75,50,28.40,28.26,26,8,26,0.00
2014-7-24,88.2,74.6,58.5,67.1,62.5,58.2,99,69,41,28.39,28.22,24,10,24,0.00
2014-7-25,88.2,77.8,69.8,70.5,66.7,62.5,90,71,43,28.30,28.14,30,18,30,0.00
2014-7-26,80.8,72.0,57.0,74.9,68.8,55.6,99,90,67,28.46,28.20,26,15,26,1.45
2014-7-27,63.5,57.0,51.4,56.1,50.6,47.1,99,80,57,28.70,28.39,28,15,28,0.52
2014-7-28,70.2,58.3,44.6,51.3,41.7,28.2,99,63,21,28.73,28.63,29,11,29,0.06
2014-7-29,82.9,74.8,43.2,99.9,57.7,22.7,98,60,3,29.95,28.55,18,6,18,0.00
2014-7-30,94.6,83.1,70.3,72.5,65.3,59.0,88,58,32,29.95,29.78,23,8,24,0.00
2014-7-31,93.0,81.7,74.7,73.2,68.7,54.8,88,66,41,29.92,29.81,28,10,28,0.00
2014-8-1,85.1,75.8,68.5,67.1,64.8,62.2,89,70,52,29.94,29.85,26,9,26,0.00
2014-8-2,88.9,74.8,63.5,68.5,64.1,6.0,99,73,10,29.99,29.88,21,6,21,0.00
2014-8-3,90.5,78.1,65.7,69.0,64.8,60.5,96,67,39,29.98,29.85,25,7,25,0.00
2014-8-4,91.8,79.6,67.8,72.9,67.5,62.8,98,69,42,29.95,29.84,19,5,19,0.00
2014-8-5,95.7,82.5,68.0,71.3,66.7,61.0,96,63,33,29.98,29.85,17,4,17,0.00
2014-8-6,98.4,84.5,72.5,72.7,66.7,60.3,92,59,33,29.94,29.79,17,6,17,0.00
2014-8-7,100.8,86.7,75.2,74.1,67.7,60.2,92,57,29,29.86,29.71,29,10,29,0.00
2014-8-8,100.8,87.0,75.7,74.5,67.7,59.9,92,57,29,29.88,29.75,30,10,30,0.00
2014-8-9,98.4,86.0,74.8,72.9,66.2,58.8,90,55,30,29.93,29.79,24,9,24,0.00
2014-8-10,101.3,87.2,75.4,72.5,66.9,58.9,85,55,28,29.94,29.81,24,8,24,0.00
2014-8-11,98.1,79.9,72.1,74.5,70.7,63.9,96,76,37,29.95,29.89,31,5,31,0.24
2014-8-12,95.9,81.4,70.0,73.2,66.2,53.8,98,65,32,29.98,29.85,24,5,24,0.00
2014-8-13,93.9,77.3,60.8,62.2,58.8,54.1,90,57,31,30.00,29.87,21,5,21,0.00
2014-8-14,94.3,79.0,62.1,67.0,61.2,56.1,93,59,31,29.96,29.82,21,4,21,0.00
2014-8-15,99.0,83.2,70.2,73.8,66.2,60.0,93,61,29,29.93,29.75,21,6,21,0.00
2014-8-16,101.1,86.8,75.9,74.3,67.9,57.5,90,57,26,29.88,29.75,24,10,24,0.00
2014-8-17,97.9,82.5,75.4,74.8,71.1,62.3,87,70,35,29.90,29.78,24,9,27,0.00
2014-8-18,98.1,84.3,74.8,74.4,69.8,62.6,86,65,34,29.87,29.73,27,10,27,0.00
2014-8-19,93.4,82.3,74.7,71.1,66.9,62.0,85,62,37,29.86,29.72,30,10,30,0.00
2014-8-20,98.4,85.4,75.9,74.7,68.8,60.6,92,62,32,29.88,29.76,28,16,28,0.00
2014-8-21,99.0,86.6,78.1,75.0,68.6,59.4,89,60,28,29.94,29.84,32,16,32,0.00
2014-8-22,99.7,86.5,76.1,74.3,66.4,54.5,90,56,25,29.96,29.84,27,12,27,0.00
2014-8-23,97.7,84.4,72.0,73.5,67.3,61.5,97,60,34,29.93,29.78,24,9,24,0.00
2014-8-24,99.5,84.9,74.7,73.7,67.7,60.9,95,60,32,29.87,29.75,20,8,22,0.00
2014-8-25,100.6,86.2,75.2,73.7,65.6,57.3,86,54,27,29.88,29.76,19,6,19,0.00
2014-8-26,97.3,82.7,71.2,71.0,67.2,63.1,85,61,37,29.93,29.83,29,4,29,0.00
2014-8-27,95.4,81.5,70.7,73.5,66.2,57.9,96,64,34,29.95,29.82,21,4,21,0.00
2014-8-28,97.7,81.1,66.9,74.5,67.7,59.3,95,66,36,29.89,29.73,25,6,25,0.00
2014-8-29,97.2,81.9,74.3,74.0,71.3,64.3,96,73,40,29.84,29.72,27,7,27,0.00
2014-8-30,96.4,82.8,72.1,75.7,70.2,18.9,97,69,12,29.86,29.76,21,5,21,0.00
2014-8-31,96.4,83.0,73.2,74.5,71.2,66.2,94,70,41,29.88,29.77,27,11,27,0.00
2014-9-1,96.3,84.2,75.7,75.0,70.9,17.7,94,67,11,29.84,29.73,29,13,29,0.00
2014-9-2,96.4,84.3,75.7,75.5,71.6,66.2,95,68,40,29.88,29.77,30,13,30,0.00
2014-9-3,95.2,82.5,74.3,75.0,70.3,61.4,98,70,35,29.92,29.81,30,11,31,0.00
2014-9-4,95.0,81.4,75.7,75.9,71.3,65.3,97,73,41,29.95,29.87,40,9,40,0.01
2014-9-5,95.9,82.3,74.8,76.2,71.0,62.5,99,73,34,29.99,29.83,39,8,39,0.00
2014-9-6,96.1,81.6,70.2,74.6,69.9,61.7,98,72,34,29.99,29.83,18,5,18,1.25
2014-9-7,86.2,76.4,72.7,74.0,72.3,69.9,99,88,61,30.00,29.88,14,6,14,1.06
2014-9-8,95.0,80.1,68.4,77.0,69.3,63.4,99,73,40,29.95,29.81,14,3,14,0.00
2014-9-9,94.5,82.8,73.4,73.0,69.0,63.7,93,66,41,29.91,29.74,21,8,21,0.00
2014-9-10,97.0,84.3,74.7,73.5,69.9,66.0,94,65,39,29.79,29.67,29,13,30,0.00
2014-9-11,96.1,84.0,74.5,74.8,71.9,64.0,96,70,40,29.88,29.75,23,8,24,0.00
2014-9-12,88.2,76.0,62.4,75.1,70.1,61.9,99,83,51,30.05,29.86,30,11,30,0.02
2014-9-13,65.7,61.4,57.4,63.2,59.5,56.0,99,94,79,30.13,30.03,27,13,27,0.06
2014-9-14,80.6,68.6,62.1,69.0,64.8,61.5,99,88,67,30.12,30.00,11,4,11,0.00
2014-9-15,90.0,76.2,67.3,72.2,68.6,10.5,99,80,10,30.04,29.93,14,3,17,0.00
2014-9-16,93.4,79.4,71.1,76.0,71.7,65.3,99,80,43,30.01,29.84,24,5,27,0.00
2014-9-17,90.7,79.1,73.4,77.5,74.0,68.3,99,86,52,29.91,29.74,17,4,17,0.60
2014-9-18,87.4,74.7,69.1,74.8,71.1,68.8,99,90,63,29.83,29.72,24,4,27,1.49
2014-9-19,81.0,74.9,71.1,76.8,72.8,70.5,99,93,78,29.85,29.77,14,4,14,0.01
2014-9-20,87.1,76.8,72.0,75.9,72.7,70.6,99,88,60,29.90,29.81,19,4,19,0.13
2014-9-21,88.7,77.0,68.0,75.7,69.3,64.7,99,80,48,30.00,29.89,17,3,17,0.00
2014-9-22,88.0,76.0,64.6,71.5,68.0,64.3,99,78,52,30.05,29.94,17,5,18,0.00
2014-9-23,84.0,71.5,60.3,64.8,59.4,54.1,99,69,40,30.07,29.94,14,3,14,0.00
2014-9-24,83.7,67.1,52.9,67.9,56.0,48.1,99,73,32,30.07,29.97,13,2,15,0.00
2014-9-25,83.7,69.4,55.0,68.2,62.1,54.2,99,80,53,30.07,29.97,18,4,18,0.00
2014-9-26,83.5,71.8,60.6,69.5,64.9,60.2,99,81,55,30.03,29.90,17,3,17,0.00
2014-9-27,78.8,71.9,67.1,70.5,67.2,64.5,99,86,66,29.97,29.87,14,2,14,0.01
2014-9-28,86.0,71.8,60.6,68.8,63.7,59.8,99,79,46,29.96,29.85,19,4,21,0.01
2014-9-29,88.9,73.1,60.3,68.0,62.4,58.4,99,74,37,29.91,29.79,23,3,23,0.00
2014-9-30,89.4,74.9,59.9,71.1,64.7,59.6,99,74,42,29.81,29.67,14,4,15,0.00
2014-10-1,84.2,75.6,72.3,73.4,72.4,70.0,98,90,66,29.75,29.69,18,8,18,0.00
2014-10-2,91.6,84.6,72.1,76.6,72.7,69.0,97,69,50,29.80,29.67,25,13,31,0.17
2014-10-3,81.7,72.0,56.8,59.6,49.4,42.3,89,49,26,30.11,29.88,26,10,26,0.00
2014-10-4,98.1,64.7,50.2,55.3,47.8,32.3,99,60,10,30.12,29.86,132,7,132,0.00
2014-10-5,84.6,72.5,63.1,69.5,63.6,55.1,97,76,48,29.86,29.70,22,12,25,0.00
2014-10-6,88.0,76.5,70.9,73.5,69.8,66.2,98,81,50,29.83,29.73,23,9,26,0.00
2014-10-7,92.8,79.8,70.9,73.7,68.8,60.4,97,73,38,29.87,29.78,24,11,24,0.00
2014-10-8,88.9,78.4,70.0,73.4,69.1,61.6,98,75,43,29.94,29.83,24,10,24,0.00
2014-10-9,88.5,80.0,73.9,73.7,70.3,64.8,97,74,47,29.89,29.76,33,14,33,0.00
2014-10-10,90.7,82.5,74.3,72.4,69.2,65.5,93,65,45,29.83,29.74,29,14,29,0.00
2014-10-11,77.4,63.1,56.5,73.2,60.2,55.5,99,90,80,30.01,29.80,27,9,27,1.07
2014-10-12,74.5,65.2,58.8,73.9,63.5,56.5,99,94,85,29.94,29.62,21,6,21,0.04
2014-10-13,76.3,67.6,56.1,73.8,57.6,47.1,99,73,45,29.95,29.54,39,16,39,0.66
2014-10-14,89.2,63.3,50.9,49.9,42.1,25.6,88,50,10,30.07,29.92,24,8,24,0.00
2014-10-15,86.9,66.2,48.7,55.6,45.9,34.4,94,55,19,30.03,29.89,18,4,18,0.00
2014-10-16,85.5,71.0,58.8,53.3,46.8,42.6,60,44,24,29.91,29.77,25,10,30,0.00
2014-10-17,88.2,71.1,59.5,63.2,59.3,50.4,96,69,35,29.86,29.75,17,6,17,0.00
2014-10-18,87.3,72.1,61.2,70.9,64.8,60.4,99,80,44,29.97,29.85,15,3,15,0.00
2014-10-19,79.2,67.5,59.4,68.3,63.4,58.9,99,88,62,30.02,29.91,15,3,15,0.00
2014-10-20,82.6,67.2,57.6,70.7,59.9,3.2,99,81,10,30.00,29.89,14,2,14,0.00
2014-10-21,79.9,63.8,51.4,71.6,55.4,50.0,99,78,40,30.00,29.89,17,3,17,0.00
2014-10-22,80.8,67.1,55.0,65.1,59.2,53.8,99,78,50,30.04,29.93,17,3,17,0.00
2014-10-23,83.8,69.8,60.8,67.7,62.2,58.8,99,79,48,30.04,29.94,11,2,11,0.01
2014-10-24,86.9,68.9,53.6,63.9,59.7,52.8,99,76,44,30.08,29.96,11,1,12,0.00
2014-10-25,88.5,72.4,60.3,64.5,60.6,58.2,95,69,40,30.08,29.97,21,4,21,0.00
2014-10-26,84.6,71.5,60.8,63.3,58.8,53.6,98,67,40,29.98,29.80,24,8,24,0.00
2014-10-27,83.1,72.2,63.9,66.2,62.4,59.1,98,74,46,29.83,29.72,30,14,30,0.00
2014-10-28,83.5,72.2,66.0,68.8,65.9,61.7,99,82,59,29.98,29.79,21,6,21,0.00
2014-10-29,79.0,67.9,56.5,63.1,60.4,56.2,99,78,52,30.08,29.97,15,5,15,0.00
2014-10-30,84.9,66.8,54.0,64.2,59.3,53.1,99,79,49,30.06,29.93,11,2,11,0.00
2014-10-31,71.6,62.4,52.2,61.6,48.7,36.3,98,65,29,30.22,30.01,27,10,27,0.17
2014-11-1,52.2,52.2,52.2,42.7,42.7,42.7,70,70,70,30.30,30.15,15,4,15,0.00
2014-11-2,52.2,52.2,52.2,42.7,42.7,42.7,70,70,70,30.22,30.04,28,10,28,0.00
2014-11-3,52.2,52.2,52.2,42.7,42.7,42.7,70,70,70,30.06,29.96,27,13,27,0.00
2014-11-4,52.2,52.2,52.2,42.7,42.7,42.7,70,70,70,30.08,29.92,26,10,26,0.02
2014-11-5,52.2,52.2,52.2,42.7,42.7,42.7,70,70,70,30.13,29.99,14,14,14,0.00
2014-11-6,52.2,52.2,52.2,42.7,42.7,42.7,70,70,70,30.24,30.09,14,14,14,0.00
2014-11-7,52.2,52.2,52.2,42.7,42.7,42.7,70,60,10,30.19,29.94,14,14,14,0.00
2014-11-8,70.5,56.6,52.2,50.5,43.9,41.3,65,31,10,30.09,29.92,29,13,29,0.00
2014-11-9,74.1,57.4,38.5,46.8,41.7,36.1,99,60,30,30.07,29.81,17,6,19,0.00
2014-11-10,76.1,63.7,52.0,59.7,52.5,43.3,84,68,50,29.81,29.62,41,15,41,0.00
2014-11-11,64.2,48.8,38.8,60.0,38.1,28.4,92,67,49,30.10,29.67,34,14,36,0.00
2014-11-12,45.9,37.7,32.5,28.5,20.9,13.7,66,51,39,30.25,30.06,32,17,32,0.00
2014-11-13,37.4,32.5,27.1,17.2,6.8,-0.4,62,35,21,30.36,30.24,30,14,30,0.00
2014-11-14,45.0,36.5,27.9,25.1,16.5,5.1,58,44,28,30.27,30.06,14,4,14,0.00
2014-11-15,48.4,41.8,34.0,44.6,35.9,21.8,98,81,54,30.07,29.82,14,6,15,0.00
2014-11-16,46.4,40.1,29.7,45.1,39.3,25.4,99,97,82,30.06,29.72,33,12,34,0.01
2014-11-17,49.1,34.2,25.5,26.2,19.1,8.2,86,59,21,30.27,30.06,27,10,27,0.00
2014-11-18,56.5,40.3,23.7,29.7,19.2,10.4,87,49,18,30.33,30.17,21,6,21,0.00
2014-11-19,69.3,51.8,35.2,46.9,38.9,20.0,95,64,38,30.17,29.95,30,10,30,0.00
2014-11-20,70.3,58.5,44.1,62.1,55.3,43.5,99,90,74,29.98,29.83,30,9,30,0.00
2014-11-21,76.5,65.5,58.8,67.1,62.6,58.6,99,91,68,29.93,29.83,26,9,26,1.03
2014-11-22,65.3,60.2,55.0,64.0,59.6,54.2,99,98,94,29.89,29.55,25,10,28,0.66
2014-11-23,79.5,62.7,49.3,56.1,46.2,36.6,99,63,23,29.70,29.36,34,10,34,0.01
2014-11-24,61.2,48.8,32.5,41.1,32.7,18.7,94,60,21,30.02,29.69,21,8,24,0.00
2014-11-25,65.8,46.5,30.0,38.9,29.3,19.5,96,61,19,30.16,30.00,18,4,18,0.00
2014-11-26,69.1,51.2,42.4,38.4,32.8,25.6,72,52,20,30.19,29.95,21,8,22,0.00
2014-11-27,61.2,47.4,36.1,39.2,32.6,19.8,92,62,22,30.35,30.18,17,4,17,0.00
2014-11-28,70.9,57.1,43.5,55.0,46.0,34.4,89,67,46,30.18,29.89,31,11,31,0.00
2014-11-29,74.1,63.4,53.6,62.3,56.9,50.4,97,81,59,29.89,29.77,40,17,40,0.02
2014-11-30,77.5,68.8,60.8,63.5,61.5,55.3,97,79,55,29.94,29.80,40,16,40,0.00
2014-12-1,63.3,45.4,37.9,62.5,38.4,28.5,99,77,67,30.24,29.93,27,15,27,0.00
2014-12-2,38.7,38.7,38.7,29.0,29.0,29.0,68,68,68,30.23,30.23,18,18,21,0.00
2014-12-3,38.7,38.7,38.7,29.0,29.0,29.0,68,68,68,30.23,30.23,18,18,21,0.00
2014-12-4,38.7,38.7,38.7,29.0,29.0,29.0,68,68,68,30.23,30.23,18,18,21,0.00
2014-12-5,38.7,38.7,38.7,29.0,29.0,29.0,68,68,68,30.23,30.23,18,18,21,0.00
2014-12-6,38.7,38.7,38.7,29.0,29.0,29.0,68,68,68,30.23,30.23,18,18,21,0.00
2014-12-7,38.7,38.7,38.7,29.0,29.0,29.0,68,68,68,30.23,30.23,18,18,21,0.00
2014-12-8,38.7,38.7,38.7,29.0,29.0,29.0,68,68,68,30.23,30.23,18,18,21,0.00
2014-12-9,38.7,38.7,38.7,29.0,29.0,29.0,68,68,68,30.23,30.23,18,18,21,0.00
2014-12-10,38.7,38.7,38.7,29.0,29.0,29.0,68,68,68,30.23,30.23,18,18,21,0.00
2014-12-11,38.7,38.7,38.7,29.0,29.0,29.0,68,68,68,30.23,30.23,18,18,21,0.00